createdAt,value
2023-04-21T00:03:51.677Z,8.84
2023-04-21T00:08:54.885Z,8.85
2023-04-21T00:13:59.088Z,8.85
2023-04-21T00:19:02.429Z,8.74
2023-04-21T00:24:06.057Z,8.83
2023-04-21T00:29:10.460Z,8.89
2023-04-21T00:34:13.267Z,8.95
2023-04-21T00:39:16.141Z,8.95
2023-04-21T00:44:20.290Z,9.00
2023-04-21T00:49:25.274Z,8.97
2023-04-21T00:54:28.633Z,8.96
2023-04-21T00:59:32.759Z,8.89
2023-04-21T01:04:40.095Z,8.88
2023-04-21T01:09:42.860Z,9.02
2023-04-21T01:14:46.983Z,9.14
2023-04-21T01:19:51.427Z,9.13
2023-04-21T01:24:56.116Z,9.15
2023-04-21T01:29:59.509Z,9.25
2023-04-21T01:35:04.111Z,9.28
2023-04-21T01:40:10.239Z,9.19
2023-04-21T01:45:13.651Z,9.33
2023-04-21T01:50:16.576Z,9.23
2023-04-21T01:55:22.018Z,9.18
2023-04-21T02:00:25.125Z,9.21
2023-04-21T02:05:27.894Z,9.12
2023-04-21T02:10:33.222Z,9.09
2023-04-21T02:15:36.131Z,8.99
2023-04-21T02:20:39.424Z,8.83
2023-04-21T02:25:44.075Z,9.01
2023-04-21T02:30:48.645Z,8.98
2023-04-21T02:35:51.790Z,8.85
2023-04-21T02:40:55.939Z,8.79
2023-04-21T02:45:58.720Z,8.80
2023-04-21T02:51:01.466Z,8.75
2023-04-21T02:56:05.988Z,8.74
2023-04-21T03:01:08.896Z,8.68
2023-04-21T03:06:11.717Z,8.59
2023-04-21T03:11:16.688Z,8.47
2023-04-21T03:16:19.757Z,8.39
2023-04-21T03:21:22.602Z,8.33
2023-04-21T03:26:26.838Z,8.28
2023-04-21T03:31:29.813Z,8.24
2023-04-21T03:36:32.941Z,8.20
2023-04-21T03:41:37.288Z,8.13
2023-04-21T03:46:40.576Z,8.14
2023-04-21T03:51:43.343Z,8.13
2023-04-21T03:56:47.529Z,8.10
2023-04-21T04:01:50.438Z,8.10
2023-04-21T04:06:53.292Z,8.11
2023-04-21T04:11:57.617Z,8.20
2023-04-21T04:17:00.603Z,8.25
2023-04-21T04:22:03.557Z,8.34
2023-04-21T04:27:07.902Z,8.40
2023-04-21T04:32:11.104Z,8.50
2023-04-21T04:37:14.211Z,8.53
2023-04-21T04:42:20.283Z,8.56
2023-04-21T04:47:23.149Z,8.52
2023-04-21T04:52:26.264Z,8.54
2023-04-21T04:57:31.607Z,8.59
2023-04-21T05:02:34.664Z,8.56
2023-04-21T05:07:38.010Z,8.59
2023-04-21T05:12:42.214Z,8.68
2023-04-21T05:17:45.076Z,8.82
2023-04-21T05:22:48.052Z,8.96
2023-04-21T05:27:52.201Z,9.10
2023-04-21T05:32:55.065Z,9.20
2023-04-21T05:37:57.903Z,9.40
2023-04-21T05:43:02.131Z,9.70
2023-04-21T05:48:05.592Z,9.82
2023-04-21T05:53:08.475Z,10.06
2023-04-21T05:58:12.643Z,10.11
2023-04-21T06:03:15.663Z,10.17
2023-04-21T06:08:18.666Z,10.45
2023-04-21T06:13:22.826Z,10.69
2023-04-21T06:18:28.206Z,11.01
2023-04-21T06:23:31.138Z,11.25
2023-04-21T06:28:36.509Z,11.65
2023-04-21T06:33:39.384Z,11.91
2023-04-21T06:38:43.236Z,12.05
2023-04-21T06:43:47.555Z,12.37
2023-04-21T06:48:50.466Z,12.72
2023-04-21T06:53:53.306Z,12.93
2023-04-21T06:58:57.680Z,13.30
2023-04-21T07:04:00.944Z,13.36
2023-04-21T07:09:03.749Z,13.38
2023-04-21T07:14:08.967Z,13.75
2023-04-21T07:19:11.771Z,13.79
2023-04-21T07:24:14.515Z,13.53
2023-04-21T07:29:18.948Z,13.88
2023-04-21T07:34:21.885Z,13.24
2023-04-21T07:39:24.637Z,13.05
2023-04-21T07:44:29.306Z,13.06
2023-04-21T07:49:32.103Z,12.92
2023-04-21T07:54:34.968Z,13.26
2023-04-21T07:59:39.227Z,13.70
2023-04-21T08:04:42.222Z,14.35
2023-04-21T08:09:45.115Z,14.57
2023-04-21T08:14:49.340Z,14.76
2023-04-21T08:19:52.309Z,14.85
2023-04-21T08:24:55.204Z,14.94
2023-04-21T08:30:00.181Z,14.56
2023-04-21T08:35:03.069Z,15.67
2023-04-21T08:40:07.288Z,16.52
2023-04-21T08:45:12.431Z,16.94
2023-04-21T08:50:15.880Z,15.38
2023-04-21T08:55:19.522Z,15.30
2023-04-21T09:00:24.052Z,15.50
2023-04-21T09:05:28.719Z,16.42
2023-04-21T09:10:31.663Z,16.42
2023-04-21T09:15:41.620Z,16.98
2023-04-21T09:20:45.594Z,17.97
2023-04-21T09:25:48.379Z,18.51
2023-04-21T09:30:56.783Z,18.48
2023-04-21T09:36:02.883Z,18.33
2023-04-21T09:41:06.000Z,18.68
2023-04-21T09:46:12.208Z,18.33
2023-04-21T09:56:25.784Z,19.00
2023-04-21T10:01:32.076Z,18.90
2023-04-21T10:06:36.287Z,19.39
2023-04-21T10:11:39.370Z,19.47
2023-04-21T10:16:44.139Z,19.23
2023-04-21T10:21:47.024Z,19.98
2023-04-21T10:26:54.666Z,20.63
2023-04-21T10:31:59.572Z,20.53
2023-04-21T10:37:15.598Z,20.72
2023-04-21T10:42:25.191Z,21.21
2023-04-21T10:47:31.441Z,20.92
2023-04-21T10:52:34.646Z,20.90
2023-04-21T10:57:37.960Z,21.46
2023-04-21T11:02:44.861Z,21.99
2023-04-21T11:07:47.893Z,22.75
2023-04-21T11:12:50.685Z,23.07
2023-04-21T11:17:55.653Z,23.62
2023-04-21T11:22:58.494Z,24.29
2023-04-21T11:28:01.255Z,23.99
2023-04-21T11:33:05.757Z,24.25
2023-04-21T11:38:08.600Z,23.60
2023-04-21T11:43:11.487Z,23.06
2023-04-21T11:48:16.624Z,24.02
2023-04-21T11:53:20.527Z,21.90
2023-04-21T11:58:23.432Z,22.62
2023-04-21T12:03:27.604Z,23.56
2023-04-21T12:08:30.709Z,22.49
2023-04-21T12:13:33.676Z,22.47
2023-04-21T12:18:38.448Z,23.30
2023-04-21T12:23:41.340Z,23.39
2023-04-21T12:28:44.181Z,24.19
2023-04-21T12:33:48.335Z,23.64
2023-04-21T12:38:51.172Z,22.96
2023-04-21T12:43:53.865Z,23.34
2023-04-21T12:48:58.308Z,24.07
2023-04-21T12:54:01.036Z,24.66
2023-04-21T12:59:04.213Z,22.45
2023-04-21T13:04:08.821Z,22.41
2023-04-21T13:09:12.439Z,23.41
2023-04-21T13:14:15.970Z,23.88
2023-04-21T13:19:20.262Z,24.48
2023-04-21T13:24:23.305Z,24.09
2023-04-21T13:29:29.382Z,23.26
2023-04-21T13:34:34.733Z,23.37
2023-04-21T13:39:37.814Z,22.72
2023-04-21T13:44:40.702Z,22.17
2023-04-21T13:49:45.047Z,21.75
2023-04-21T13:54:47.802Z,22.31
2023-04-21T13:59:51.133Z,23.08
2023-04-21T14:04:55.636Z,22.29
2023-04-21T14:09:59.027Z,22.02
2023-04-21T14:15:01.867Z,22.21
2023-04-21T14:20:09.311Z,22.61
2023-04-21T14:25:12.171Z,21.56
2023-04-21T14:30:15.858Z,21.37
2023-04-21T14:35:20.125Z,21.31
2023-04-21T14:40:22.926Z,22.42
2023-04-21T14:45:25.828Z,21.73
2023-04-21T14:50:30.101Z,21.86
2023-04-21T14:55:32.955Z,20.67
2023-04-21T15:00:36.478Z,20.79
2023-04-21T15:05:41.088Z,20.39
2023-04-21T15:10:44.084Z,21.69
2023-04-21T15:15:46.915Z,21.82
2023-04-21T15:20:51.317Z,22.58
2023-04-21T15:25:54.117Z,23.54
2023-04-21T15:30:56.904Z,22.22
2023-04-21T15:36:01.011Z,21.52
2023-04-21T15:41:03.938Z,21.02
2023-04-21T15:46:13.185Z,21.61
2023-04-21T15:51:17.654Z,20.70
2023-04-21T15:56:20.697Z,20.95
2023-04-21T16:01:23.719Z,21.19
2023-04-21T16:06:30.736Z,21.21
2023-04-21T16:11:34.472Z,21.88
2023-04-21T16:16:37.781Z,21.36
2023-04-21T16:21:42.746Z,21.01
2023-04-21T16:26:45.585Z,20.78
2023-04-21T16:31:48.460Z,20.52
2023-04-21T16:36:52.695Z,19.80
2023-04-21T16:41:55.562Z,19.79
2023-04-21T16:46:58.586Z,20.52
2023-04-21T16:52:02.929Z,19.87
2023-04-21T16:57:06.688Z,19.45
2023-04-21T17:02:09.638Z,18.90
2023-04-21T17:07:14.135Z,18.84
2023-04-21T17:12:17.037Z,19.30
2023-04-21T17:17:19.991Z,19.42
2023-04-21T17:22:24.188Z,19.38
2023-04-21T17:27:27.068Z,19.66
2023-04-21T17:32:32.706Z,19.28
2023-04-21T17:37:37.668Z,19.17
2023-04-21T17:42:41.724Z,19.11
2023-04-21T17:47:44.614Z,18.88
2023-04-21T17:52:49.581Z,18.50
2023-04-21T17:57:52.362Z,18.00
2023-04-21T18:08:00.601Z,17.99
2023-04-21T18:13:03.706Z,18.03
2023-04-21T18:18:06.735Z,17.67
2023-04-21T18:23:11.131Z,17.35
2023-04-21T18:28:14.303Z,17.32
2023-04-21T18:33:18.379Z,17.27
2023-04-21T18:38:22.654Z,17.02
2023-04-21T18:43:25.477Z,16.96
2023-04-21T18:48:28.285Z,16.87
2023-04-21T18:53:32.554Z,16.84
2023-04-21T18:58:35.447Z,16.64
2023-04-21T19:03:38.488Z,16.57
2023-04-21T19:08:43.235Z,16.55
2023-04-21T19:13:48.067Z,16.49
2023-04-21T19:18:52.215Z,16.41
2023-04-21T19:23:57.936Z,16.31
2023-04-21T19:29:00.977Z,16.31
2023-04-21T19:34:03.860Z,16.22
2023-04-21T19:39:09.234Z,16.08
2023-04-21T19:44:12.138Z,16.06
2023-04-21T19:49:15.063Z,16.00
2023-04-21T19:54:19.333Z,15.89
2023-04-21T19:59:22.430Z,15.89
2023-04-21T20:04:25.370Z,15.84
2023-04-21T20:09:29.683Z,15.67
2023-04-21T20:14:32.581Z,15.67
2023-04-21T20:19:35.809Z,15.61
2023-04-21T20:24:41.812Z,15.58
2023-04-21T20:29:44.716Z,15.50
2023-04-21T20:34:47.632Z,15.39
2023-04-21T20:39:52.327Z,15.40
2023-04-21T20:44:55.210Z,15.32
2023-04-21T20:49:59.000Z,15.23
2023-04-21T20:55:03.287Z,15.16
2023-04-21T21:00:07.236Z,15.05
2023-04-21T21:05:10.483Z,15.01
2023-04-21T21:11:15.404Z,14.91
2023-04-21T21:16:19.543Z,14.03
2023-04-21T21:21:22.299Z,14.51
2023-04-21T21:26:24.994Z,14.83
2023-04-21T21:31:29.478Z,14.75
2023-04-21T21:36:33.745Z,14.95
2023-04-21T21:41:36.633Z,14.93
2023-04-21T21:46:41.944Z,14.86
2023-04-21T21:51:44.871Z,14.74
2023-04-21T21:56:47.893Z,14.52
2023-04-21T22:01:52.136Z,14.42
2023-04-21T22:06:54.902Z,14.33
2023-04-21T22:11:57.699Z,14.34
2023-04-21T22:17:02.802Z,13.04
2023-04-21T22:22:05.653Z,13.90
2023-04-21T22:27:08.559Z,14.82
2023-04-21T22:32:12.617Z,14.90
2023-04-21T22:37:15.712Z,14.69
2023-04-21T22:42:18.728Z,14.46
2023-04-21T22:47:22.925Z,14.42
2023-04-21T22:52:26.659Z,14.31
2023-04-21T22:57:29.607Z,14.16
2023-04-21T23:02:33.935Z,14.09
2023-04-21T23:07:37.382Z,13.98
2023-04-21T23:12:40.243Z,14.00
2023-04-21T23:17:45.243Z,13.93
2023-04-21T23:22:48.030Z,13.83
2023-04-21T23:27:50.792Z,13.68
2023-04-21T23:32:54.909Z,13.53
2023-04-21T23:37:57.721Z,13.42
2023-04-21T23:43:00.957Z,13.21
2023-04-21T23:48:05.288Z,13.13
2023-04-21T23:53:08.123Z,12.97
2023-04-21T23:58:10.850Z,12.92
